sensor_id;sensor_type;location;lat;lon;timestamp;temperature;humidity
80701;DHT22;71609;42.630;23.380;2024-03-23T00:53:37;21.70;28.80
80701;DHT22;71609;42.630;23.380;2024-03-23T00:56:03;21.70;28.80
80701;DHT22;71609;42.630;23.380;2024-03-23T00:58:30;21.70;28.90
80701;DHT22;71609;42.630;23.380;2024-03-23T01:00:56;21.70;28.80
80701;DHT22;71609;42.630;23.380;2024-03-23T01:03:21;21.70;28.90
80701;DHT22;71609;42.630;23.380;2024-03-23T01:05:47;21.70;28.90
80701;DHT22;71609;42.630;23.380;2024-03-23T01:08:14;21.70;28.90
80701;DHT22;71609;42.630;23.380;2024-03-23T01:10:40;21.70;28.90
80701;DHT22;71609;42.630;23.380;2024-03-23T01:13:06;21.70;28.90
80701;DHT22;71609;42.630;23.380;2024-03-23T01:15:31;21.70;29.00
80701;DHT22;71609;42.630;23.380;2024-03-23T01:17:57;21.70;28.90
80701;DHT22;71609;42.630;23.380;2024-03-23T01:20:23;21.70;28.90
80701;DHT22;71609;42.630;23.380;2024-03-23T01:22:49;21.70;28.90
80701;DHT22;71609;42.630;23.380;2024-03-23T01:25:14;21.70;28.90
80701;DHT22;71609;42.630;23.380;2024-03-23T01:27:40;21.60;28.90
80701;DHT22;71609;42.630;23.380;2024-03-23T01:30:06;21.70;28.90
80701;DHT22;71609;42.630;23.380;2024-03-23T01:32:33;21.70;28.90
80701;DHT22;71609;42.630;23.380;2024-03-23T01:34:58;21.60;28.90
80701;DHT22;71609;42.630;23.380;2024-03-23T01:37:24;21.60;28.90
80701;DHT22;71609;42.630;23.380;2024-03-23T01:39:50;21.60;28.90
80701;DHT22;71609;42.630;23.380;2024-03-23T01:42:16;21.60;28.90
80701;DHT22;71609;42.630;23.380;2024-03-23T01:44:42;21.60;28.90
80701;DHT22;71609;42.630;23.380;2024-03-23T01:47:08;21.60;28.90
80701;DHT22;71609;42.630;23.380;2024-03-23T01:49:33;21.60;28.90
80701;DHT22;71609;42.630;23.380;2024-03-23T01:51:59;21.60;28.90
80701;DHT22;71609;42.630;23.380;2024-03-23T01:54:25;21.60;28.90
80701;DHT22;71609;42.630;23.380;2024-03-23T01:56:51;21.60;28.90
80701;DHT22;71609;42.630;23.380;2024-03-23T01:59:17;21.60;28.90
80701;DHT22;71609;42.630;23.380;2024-03-23T02:01:43;21.60;28.90
80701;DHT22;71609;42.630;23.380;2024-03-23T02:04:09;21.60;28.90
80701;DHT22;71609;42.630;23.380;2024-03-23T02:06:35;21.60;28.90
80701;DHT22;71609;42.630;23.380;2024-03-23T02:09:01;21.60;28.90
80701;DHT22;71609;42.630;23.380;2024-03-23T02:11:26;21.60;28.90
80701;DHT22;71609;42.630;23.380;2024-03-23T02:13:53;21.60;28.90
80701;DHT22;71609;42.630;23.380;2024-03-23T02:16:18;21.60;28.90
80701;DHT22;71609;42.630;23.380;2024-03-23T02:18:44;21.60;28.90
80701;DHT22;71609;42.630;23.380;2024-03-23T02:21:10;21.60;29.00
80701;DHT22;71609;42.630;23.380;2024-03-23T02:23:35;21.60;28.90
80701;DHT22;71609;42.630;23.380;2024-03-23T02:26:01;21.60;28.90
80701;DHT22;71609;42.630;23.380;2024-03-23T02:28:27;21.60;28.90
80701;DHT22;71609;42.630;23.380;2024-03-23T02:30:53;21.60;28.90
80701;DHT22;71609;42.630;23.380;2024-03-23T02:33:18;21.60;28.90
80701;DHT22;71609;42.630;23.380;2024-03-23T02:35:45;21.60;29.00
80701;DHT22;71609;42.630;23.380;2024-03-23T02:38:11;21.60;28.90
80701;DHT22;71609;42.630;23.380;2024-03-23T02:40:36;21.60;28.90
80701;DHT22;71609;42.630;23.380;2024-03-23T02:43:03;21.60;28.90
80701;DHT22;71609;42.630;23.380;2024-03-23T02:45:29;21.60;28.90
80701;DHT22;71609;42.630;23.380;2024-03-23T02:47:54;21.60;28.90
80701;DHT22;71609;42.630;23.380;2024-03-23T02:50:21;21.50;28.90
80701;DHT22;71609;42.630;23.380;2024-03-23T02:52:47;21.60;29.00
80701;DHT22;71609;42.630;23.380;2024-03-23T02:55:13;21.60;29.00
80701;DHT22;71609;42.630;23.380;2024-03-23T02:57:39;21.60;28.90
80701;DHT22;71609;42.630;23.380;2024-03-23T03:00:05;21.60;28.90
80701;DHT22;71609;42.630;23.380;2024-03-23T03:02:32;21.60;28.90
80701;DHT22;71609;42.630;23.380;2024-03-23T03:04:58;21.60;28.90
80701;DHT22;71609;42.630;23.380;2024-03-23T03:07:24;21.60;28.90
80701;DHT22;71609;42.630;23.380;2024-03-23T03:09:50;21.60;28.90
80701;DHT22;71609;42.630;23.380;2024-03-23T03:12:15;21.60;28.90
80701;DHT22;71609;42.630;23.380;2024-03-23T03:14:41;21.60;28.90
80701;DHT22;71609;42.630;23.380;2024-03-23T03:17:07;21.60;28.90
80701;DHT22;71609;42.630;23.380;2024-03-23T03:19:33;21.60;28.90
80701;DHT22;71609;42.630;23.380;2024-03-23T03:21:58;21.60;28.90
80701;DHT22;71609;42.630;23.380;2024-03-23T03:24:24;21.60;29.00
80701;DHT22;71609;42.630;23.380;2024-03-23T03:26:50;21.60;28.90
80701;DHT22;71609;42.630;23.380;2024-03-23T03:29:16;21.50;28.90
80701;DHT22;71609;42.630;23.380;2024-03-23T03:31:44;21.60;28.90
80701;DHT22;71609;42.630;23.380;2024-03-23T03:34:10;21.60;29.00
80701;DHT22;71609;42.630;23.380;2024-03-23T03:36:36;21.50;28.90
80701;DHT22;71609;42.630;23.380;2024-03-23T03:39:02;21.60;29.00
80701;DHT22;71609;42.630;23.380;2024-03-23T03:41:32;21.60;28.90
80701;DHT22;71609;42.630;23.380;2024-03-23T03:43:58;21.50;28.90
80701;DHT22;71609;42.630;23.380;2024-03-23T03:46:27;21.50;28.90
80701;DHT22;71609;42.630;23.380;2024-03-23T03:48:54;21.50;28.90
80701;DHT22;71609;42.630;23.380;2024-03-23T03:51:20;21.50;29.00
80701;DHT22;71609;42.630;23.380;2024-03-23T03:53:46;21.60;29.00
80701;DHT22;71609;42.630;23.380;2024-03-23T03:56:12;21.50;28.90
80701;DHT22;71609;42.630;23.380;2024-03-23T03:58:38;21.50;29.00
80701;DHT22;71609;42.630;23.380;2024-03-23T04:01:03;21.50;28.90
80701;DHT22;71609;42.630;23.380;2024-03-23T04:03:29;21.50;28.90
80701;DHT22;71609;42.630;23.380;2024-03-23T04:05:55;21.60;28.90
80701;DHT22;71609;42.630;23.380;2024-03-23T04:08:21;21.50;28.90
80701;DHT22;71609;42.630;23.380;2024-03-23T04:10:47;21.50;28.90
80701;DHT22;71609;42.630;23.380;2024-03-23T04:13:13;21.50;28.90
80701;DHT22;71609;42.630;23.380;2024-03-23T04:15:39;21.50;28.90
80701;DHT22;71609;42.630;23.380;2024-03-23T04:18:06;21.50;28.90
80701;DHT22;71609;42.630;23.380;2024-03-23T04:20:32;21.50;28.90
80701;DHT22;71609;42.630;23.380;2024-03-23T04:22:58;21.50;28.90
80701;DHT22;71609;42.630;23.380;2024-03-23T04:25:24;21.50;29.00
80701;DHT22;71609;42.630;23.380;2024-03-23T04:27:50;21.50;28.90
80701;DHT22;71609;42.630;23.380;2024-03-23T04:30:15;21.50;28.90
80701;DHT22;71609;42.630;23.380;2024-03-23T04:32:42;21.50;28.90
80701;DHT22;71609;42.630;23.380;2024-03-23T04:35:08;21.50;28.90
80701;DHT22;71609;42.630;23.380;2024-03-23T04:37:37;21.50;28.90
80701;DHT22;71609;42.630;23.380;2024-03-23T04:40:04;21.50;29.00
80701;DHT22;71609;42.630;23.380;2024-03-23T04:42:30;21.50;28.90
80701;DHT22;71609;42.630;23.380;2024-03-23T04:44:56;21.50;28.90
80701;DHT22;71609;42.630;23.380;2024-03-23T04:47:22;21.50;28.90
80701;DHT22;71609;42.630;23.380;2024-03-23T04:49:48;21.50;28.90
80701;DHT22;71609;42.630;23.380;2024-03-23T04:52:14;21.50;28.90
80701;DHT22;71609;42.630;23.380;2024-03-23T04:54:40;21.50;28.90
80701;DHT22;71609;42.630;23.380;2024-03-23T04:57:06;21.50;28.90
80701;DHT22;71609;42.630;23.380;2024-03-23T04:59:32;21.50;28.90
80701;DHT22;71609;42.630;23.380;2024-03-23T05:01:59;21.60;29.00
80701;DHT22;71609;42.630;23.380;2024-03-23T05:04:25;21.50;28.90
80701;DHT22;71609;42.630;23.380;2024-03-23T05:06:51;21.50;28.90
80701;DHT22;71609;42.630;23.380;2024-03-23T05:09:17;21.50;28.90
80701;DHT22;71609;42.630;23.380;2024-03-23T05:11:42;21.60;28.90
80701;DHT22;71609;42.630;23.380;2024-03-23T05:14:08;21.60;28.90
80701;DHT22;71609;42.630;23.380;2024-03-23T05:16:34;21.60;28.90
80701;DHT22;71609;42.630;23.380;2024-03-23T05:19:00;21.60;28.90
80701;DHT22;71609;42.630;23.380;2024-03-23T05:21:26;21.60;28.90
80701;DHT22;71609;42.630;23.380;2024-03-23T05:23:53;21.70;28.90
80701;DHT22;71609;42.630;23.380;2024-03-23T05:26:19;21.70;28.80
80701;DHT22;71609;42.630;23.380;2024-03-23T05:28:45;21.80;28.80
80701;DHT22;71609;42.630;23.380;2024-03-23T05:31:11;21.80;28.70
80701;DHT22;71609;42.630;23.380;2024-03-23T05:33:37;21.90;28.70
80701;DHT22;71609;42.630;23.380;2024-03-23T05:36:05;22.00;28.70
80701;DHT22;71609;42.630;23.380;2024-03-23T05:38:34;22.10;28.50
80701;DHT22;71609;42.630;23.380;2024-03-23T05:41:00;22.20;28.40
80701;DHT22;71609;42.630;23.380;2024-03-23T05:43:26;22.30;28.20
80701;DHT22;71609;42.630;23.380;2024-03-23T05:46:00;22.50;28.00
80701;DHT22;71609;42.630;23.380;2024-03-23T05:48:27;22.70;28.00
80701;DHT22;71609;42.630;23.380;2024-03-23T05:50:53;22.80;27.80
80701;DHT22;71609;42.630;23.380;2024-03-23T05:53:20;22.90;27.70
80701;DHT22;71609;42.630;23.380;2024-03-23T05:55:49;23.00;27.60
80701;DHT22;71609;42.630;23.380;2024-03-23T05:58:16;23.10;28.40
80701;DHT22;71609;42.630;23.380;2024-03-23T06:00:43;23.20;27.40
80701;DHT22;71609;42.630;23.380;2024-03-23T06:03:09;23.30;27.40
80701;DHT22;71609;42.630;23.380;2024-03-23T06:05:38;23.50;27.30
80701;DHT22;71609;42.630;23.380;2024-03-23T06:08:04;23.50;27.10
80701;DHT22;71609;42.630;23.380;2024-03-23T06:10:30;23.60;27.00
80701;DHT22;71609;42.630;23.380;2024-03-23T06:12:57;23.70;26.90
80701;DHT22;71609;42.630;23.380;2024-03-23T06:15:24;23.80;26.80
80701;DHT22;71609;42.630;23.380;2024-03-23T06:17:50;24.00;26.70
80701;DHT22;71609;42.630;23.380;2024-03-23T06:20:15;24.00;26.50
80701;DHT22;71609;42.630;23.380;2024-03-23T06:22:41;24.20;26.50
80701;DHT22;71609;42.630;23.380;2024-03-23T06:25:08;24.30;26.30
80701;DHT22;71609;42.630;23.380;2024-03-23T06:27:33;24.30;26.10
80701;DHT22;71609;42.630;23.380;2024-03-23T06:30:00;24.30;26.00
80701;DHT22;71609;42.630;23.380;2024-03-23T06:32:27;24.30;25.90
80701;DHT22;71609;42.630;23.380;2024-03-23T06:34:53;24.30;25.90
80701;DHT22;71609;42.630;23.380;2024-03-23T06:37:18;24.30;25.80
80701;DHT22;71609;42.630;23.380;2024-03-23T06:39:46;24.30;25.70
80701;DHT22;71609;42.630;23.380;2024-03-23T06:42:12;24.30;25.70
80701;DHT22;71609;42.630;23.380;2024-03-23T06:44:38;24.30;26.50
80701;DHT22;71609;42.630;23.380;2024-03-23T06:47:05;24.30;25.70
80701;DHT22;71609;42.630;23.380;2024-03-23T06:49:30;24.30;25.70
80701;DHT22;71609;42.630;23.380;2024-03-23T06:51:56;24.30;25.70
80701;DHT22;71609;42.630;23.380;2024-03-23T06:54:22;24.30;25.70
80701;DHT22;71609;42.630;23.380;2024-03-23T06:56:48;24.20;25.80
80701;DHT22;71609;42.630;23.380;2024-03-23T06:59:13;24.10;25.80
80701;DHT22;71609;42.630;23.380;2024-03-23T07:01:39;24.10;25.90
80701;DHT22;71609;42.630;23.380;2024-03-23T07:04:05;24.00;25.90
80701;DHT22;71609;42.630;23.380;2024-03-23T07:06:31;24.00;26.00
80701;DHT22;71609;42.630;23.380;2024-03-23T07:08:57;23.90;26.10
80701;DHT22;71609;42.630;23.380;2024-03-23T07:11:23;23.80;26.40
80701;DHT22;71609;42.630;23.380;2024-03-23T07:13:53;23.70;26.60
80701;DHT22;71609;42.630;23.380;2024-03-23T07:16:22;23.60;26.70
80701;DHT22;71609;42.630;23.380;2024-03-23T07:18:49;23.50;26.80
80701;DHT22;71609;42.630;23.380;2024-03-23T07:21:15;23.50;26.90
80701;DHT22;71609;42.630;23.380;2024-03-23T07:23:44;23.50;27.00
80701;DHT22;71609;42.630;23.380;2024-03-23T07:26:10;23.50;27.00
80701;DHT22;71609;42.630;23.380;2024-03-23T07:28:36;23.50;27.10
80701;DHT22;71609;42.630;23.380;2024-03-23T07:31:07;23.50;27.10
80701;DHT22;71609;42.630;23.380;2024-03-23T07:33:48;23.50;27.10
80701;DHT22;71609;42.630;23.380;2024-03-23T07:36:14;23.60;27.20
80701;DHT22;71609;42.630;23.380;2024-03-23T07:38:41;23.60;27.20
80701;DHT22;71609;42.630;23.380;2024-03-23T07:41:25;23.60;27.20
80701;DHT22;71609;42.630;23.380;2024-03-23T07:43:53;23.70;27.20
80701;DHT22;71609;42.630;23.380;2024-03-23T07:46:20;23.70;27.10
80701;DHT22;71609;42.630;23.380;2024-03-23T07:48:46;23.80;27.10
80701;DHT22;71609;42.630;23.380;2024-03-23T07:51:21;23.80;27.10
80701;DHT22;71609;42.630;23.380;2024-03-23T07:53:47;23.80;27.10
80701;DHT22;71609;42.630;23.380;2024-03-23T07:56:14;23.80;27.20
80701;DHT22;71609;42.630;23.380;2024-03-23T07:58:41;23.80;27.10
80701;DHT22;71609;42.630;23.380;2024-03-23T08:01:09;23.80;27.10
80701;DHT22;71609;42.630;23.380;2024-03-23T08:03:35;23.90;27.20
80701;DHT22;71609;42.630;23.380;2024-03-23T08:06:11;23.90;27.10
80701;DHT22;71609;42.630;23.380;2024-03-23T08:08:38;24.00;27.20
80701;DHT22;71609;42.630;23.380;2024-03-23T08:11:04;24.00;27.10
80701;DHT22;71609;42.630;23.380;2024-03-23T08:13:30;24.00;27.00
80701;DHT22;71609;42.630;23.380;2024-03-23T08:15:57;24.10;27.00
80701;DHT22;71609;42.630;23.380;2024-03-23T08:18:23;24.10;27.00
80701;DHT22;71609;42.630;23.380;2024-03-23T08:20:58;24.10;26.90
80701;DHT22;71609;42.630;23.380;2024-03-23T08:23:28;24.20;26.90
80701;DHT22;71609;42.630;23.380;2024-03-23T08:26:03;24.20;26.80
80701;DHT22;71609;42.630;23.380;2024-03-23T08:28:29;24.20;26.80
80701;DHT22;71609;42.630;23.380;2024-03-23T08:30:55;24.30;26.80
80701;DHT22;71609;42.630;23.380;2024-03-23T08:33:22;24.30;26.80
80701;DHT22;71609;42.630;23.380;2024-03-23T08:35:56;24.30;26.80
80701;DHT22;71609;42.630;23.380;2024-03-23T08:38:26;24.40;26.80
80701;DHT22;71609;42.630;23.380;2024-03-23T08:40:59;24.40;26.70
80701;DHT22;71609;42.630;23.380;2024-03-23T08:43:25;24.50;26.80
80701;DHT22;71609;42.630;23.380;2024-03-23T08:45:52;24.50;26.70
80701;DHT22;71609;42.630;23.380;2024-03-23T08:48:19;24.50;26.70
80701;DHT22;71609;42.630;23.380;2024-03-23T08:51:04;24.60;26.70
80701;DHT22;71609;42.630;23.380;2024-03-23T08:53:31;24.60;26.60
80701;DHT22;71609;42.630;23.380;2024-03-23T08:55:57;24.60;26.50
80701;DHT22;71609;42.630;23.380;2024-03-23T08:58:24;24.70;26.50
80701;DHT22;71609;42.630;23.380;2024-03-23T09:00:51;24.70;26.50
80701;DHT22;71609;42.630;23.380;2024-03-23T09:03:17;24.70;26.40
80701;DHT22;71609;42.630;23.380;2024-03-23T09:05:43;24.80;26.40
80701;DHT22;71609;42.630;23.380;2024-03-23T09:08:09;24.80;26.40
80701;DHT22;71609;42.630;23.380;2024-03-23T09:10:41;24.90;26.30
80701;DHT22;71609;42.630;23.380;2024-03-23T09:13:08;24.90;26.30
80701;DHT22;71609;42.630;23.380;2024-03-23T09:15:38;24.90;26.30
80701;DHT22;71609;42.630;23.380;2024-03-23T09:18:10;24.90;26.20
80701;DHT22;71609;42.630;23.380;2024-03-23T09:20:36;25.00;26.20
80701;DHT22;71609;42.630;23.380;2024-03-23T09:23:02;25.00;26.10
80701;DHT22;71609;42.630;23.380;2024-03-23T09:25:27;25.10;26.20
80701;DHT22;71609;42.630;23.380;2024-03-23T09:27:53;25.10;26.10
80701;DHT22;71609;42.630;23.380;2024-03-23T09:30:19;25.10;26.10
80701;DHT22;71609;42.630;23.380;2024-03-23T09:32:45;25.10;26.00
80701;DHT22;71609;42.630;23.380;2024-03-23T09:35:11;25.10;26.00
80701;DHT22;71609;42.630;23.380;2024-03-23T09:37:38;25.20;26.10
80701;DHT22;71609;42.630;23.380;2024-03-23T09:40:15;25.20;26.10
80701;DHT22;71609;42.630;23.380;2024-03-23T09:42:42;25.20;26.00
80701;DHT22;71609;42.630;23.380;2024-03-23T09:45:22;25.30;26.00
80701;DHT22;71609;42.630;23.380;2024-03-23T09:47:48;25.20;26.90
80701;DHT22;71609;42.630;23.380;2024-03-23T09:50:16;25.30;26.00
80701;DHT22;71609;42.630;23.380;2024-03-23T09:52:41;25.30;26.00
80701;DHT22;71609;42.630;23.380;2024-03-23T09:55:08;25.30;26.00
80701;DHT22;71609;42.630;23.380;2024-03-23T09:57:35;25.30;25.90
80701;DHT22;71609;42.630;23.380;2024-03-23T10:00:01;25.30;25.90
80701;DHT22;71609;42.630;23.380;2024-03-23T10:02:28;25.40;25.90
80701;DHT22;71609;42.630;23.380;2024-03-23T10:04:54;25.40;25.90
80701;DHT22;71609;42.630;23.380;2024-03-23T10:07:21;25.40;25.80
80701;DHT22;71609;42.630;23.380;2024-03-23T10:09:48;25.50;25.80
80701;DHT22;71609;42.630;23.380;2024-03-23T10:12:15;25.50;25.80
80701;DHT22;71609;42.630;23.380;2024-03-23T10:14:41;25.50;25.80
80701;DHT22;71609;42.630;23.380;2024-03-23T10:17:21;25.50;25.80
80701;DHT22;71609;42.630;23.380;2024-03-23T10:19:52;25.50;25.80
80701;DHT22;71609;42.630;23.380;2024-03-23T10:22:23;25.50;25.70
80701;DHT22;71609;42.630;23.380;2024-03-23T10:24:49;25.50;25.70
80701;DHT22;71609;42.630;23.380;2024-03-23T10:27:17;25.50;25.60
80701;DHT22;71609;42.630;23.380;2024-03-23T10:29:48;25.50;25.70
80701;DHT22;71609;42.630;23.380;2024-03-23T10:32:15;25.50;25.60
80701;DHT22;71609;42.630;23.380;2024-03-23T10:34:42;25.50;25.60
80701;DHT22;71609;42.630;23.380;2024-03-23T10:37:08;25.50;25.60
80701;DHT22;71609;42.630;23.380;2024-03-23T10:39:36;25.60;25.70
80701;DHT22;71609;42.630;23.380;2024-03-23T10:42:04;25.50;25.60
80701;DHT22;71609;42.630;23.380;2024-03-23T10:44:30;25.50;25.60
80701;DHT22;71609;42.630;23.380;2024-03-23T10:47:01;25.60;25.60
80701;DHT22;71609;42.630;23.380;2024-03-23T10:49:31;25.60;25.60
80701;DHT22;71609;42.630;23.380;2024-03-23T10:52:02;25.50;25.60
80701;DHT22;71609;42.630;23.380;2024-03-23T10:54:28;25.50;25.60
80701;DHT22;71609;42.630;23.380;2024-03-23T10:57:03;25.50;25.60
80701;DHT22;71609;42.630;23.380;2024-03-23T10:59:31;25.50;25.60
80701;DHT22;71609;42.630;23.380;2024-03-23T11:01:59;25.50;25.60
80701;DHT22;71609;42.630;23.380;2024-03-23T11:06:57;25.50;25.60
80701;DHT22;71609;42.630;23.380;2024-03-23T11:09:39;25.50;25.60
80701;DHT22;71609;42.630;23.380;2024-03-23T11:15:11;25.50;25.70
80701;DHT22;71609;42.630;23.380;2024-03-23T11:17:36;25.50;25.70
80701;DHT22;71609;42.630;23.380;2024-03-23T11:20:06;25.40;25.60
80701;DHT22;71609;42.630;23.380;2024-03-23T11:25:25;25.40;25.80
80701;DHT22;71609;42.630;23.380;2024-03-23T11:27:55;25.40;25.80
80701;DHT22;71609;42.630;23.380;2024-03-23T11:30:28;25.30;26.60
80701;DHT22;71609;42.630;23.380;2024-03-23T11:32:58;25.40;25.80
80701;DHT22;71609;42.630;23.380;2024-03-23T11:40:28;25.30;25.90
80701;DHT22;71609;42.630;23.380;2024-03-23T11:43:12;25.20;25.90
80701;DHT22;71609;42.630;23.380;2024-03-23T11:45:46;25.30;26.00
80701;DHT22;71609;42.630;23.380;2024-03-23T11:48:17;25.20;26.00
80701;DHT22;71609;42.630;23.380;2024-03-23T11:50:45;25.20;26.00
80701;DHT22;71609;42.630;23.380;2024-03-23T11:53:18;25.20;26.00
80701;DHT22;71609;42.630;23.380;2024-03-23T11:58:19;25.10;27.00
80701;DHT22;71609;42.630;23.380;2024-03-23T12:00:57;25.10;26.10
80701;DHT22;71609;42.630;23.380;2024-03-23T12:03:24;25.10;26.10
80701;DHT22;71609;42.630;23.380;2024-03-23T12:05:55;25.10;26.10
80701;DHT22;71609;42.630;23.380;2024-03-23T12:08:31;25.00;26.10
80701;DHT22;71609;42.630;23.380;2024-03-23T12:11:09;25.00;26.20
80701;DHT22;71609;42.630;23.380;2024-03-23T12:13:37;25.00;26.30
80701;DHT22;71609;42.630;23.380;2024-03-23T12:16:12;25.00;26.20
80701;DHT22;71609;42.630;23.380;2024-03-23T12:18:41;25.00;26.30
80701;DHT22;71609;42.630;23.380;2024-03-23T12:21:07;24.90;26.30
80701;DHT22;71609;42.630;23.380;2024-03-23T12:23:33;24.90;26.30
80701;DHT22;71609;42.630;23.380;2024-03-23T12:25:59;24.90;26.30
80701;DHT22;71609;42.630;23.380;2024-03-23T12:28:25;24.90;26.40
80701;DHT22;71609;42.630;23.380;2024-03-23T12:30:52;24.80;26.40
80701;DHT22;71609;42.630;23.380;2024-03-23T12:33:18;24.80;26.40
80701;DHT22;71609;42.630;23.380;2024-03-23T12:35:44;24.80;26.40
80701;DHT22;71609;42.630;23.380;2024-03-23T12:38:10;24.80;26.40
80701;DHT22;71609;42.630;23.380;2024-03-23T12:40:36;24.80;26.50
80701;DHT22;71609;42.630;23.380;2024-03-23T12:43:01;24.80;26.50
80701;DHT22;71609;42.630;23.380;2024-03-23T12:45:27;24.70;26.50
80701;DHT22;71609;42.630;23.380;2024-03-23T12:47:53;24.70;26.50
80701;DHT22;71609;42.630;23.380;2024-03-23T12:50:20;24.70;26.60
80701;DHT22;71609;42.630;23.380;2024-03-23T12:52:46;24.70;26.70
80701;DHT22;71609;42.630;23.380;2024-03-23T12:55:12;24.60;26.60
80701;DHT22;71609;42.630;23.380;2024-03-23T12:57:38;24.60;26.60
80701;DHT22;71609;42.630;23.380;2024-03-23T13:00:04;24.60;26.60
80701;DHT22;71609;42.630;23.380;2024-03-23T13:02:30;24.60;26.70
80701;DHT22;71609;42.630;23.380;2024-03-23T13:04:56;24.60;26.70
80701;DHT22;71609;42.630;23.380;2024-03-23T13:07:22;24.60;26.80
80701;DHT22;71609;42.630;23.380;2024-03-23T13:09:52;24.60;26.80
80701;DHT22;71609;42.630;23.380;2024-03-23T13:12:19;24.50;26.80
80701;DHT22;71609;42.630;23.380;2024-03-23T13:14:46;24.50;26.80
80701;DHT22;71609;42.630;23.380;2024-03-23T13:17:12;24.50;26.80
80701;DHT22;71609;42.630;23.380;2024-03-23T13:19:56;24.50;26.80
80701;DHT22;71609;42.630;23.380;2024-03-23T13:22:21;24.40;26.80
80701;DHT22;71609;42.630;23.380;2024-03-23T13:24:47;24.40;26.90
80701;DHT22;71609;42.630;23.380;2024-03-23T13:27:13;24.40;26.90
80701;DHT22;71609;42.630;23.380;2024-03-23T13:29:39;24.40;27.00
80701;DHT22;71609;42.630;23.380;2024-03-23T13:32:05;24.40;27.00
80701;DHT22;71609;42.630;23.380;2024-03-23T13:34:31;24.40;27.00
80701;DHT22;71609;42.630;23.380;2024-03-23T13:36:59;24.30;27.90
80701;DHT22;71609;42.630;23.380;2024-03-23T13:39:25;24.30;27.00
80701;DHT22;71609;42.630;23.380;2024-03-23T13:41:53;24.30;27.00
80701;DHT22;71609;42.630;23.380;2024-03-23T13:44:18;24.30;27.00
80701;DHT22;71609;42.630;23.380;2024-03-23T13:46:44;24.30;27.00
80701;DHT22;71609;42.630;23.380;2024-03-23T13:49:28;24.30;27.10
80701;DHT22;71609;42.630;23.380;2024-03-23T13:51:58;24.30;27.10
80701;DHT22;71609;42.630;23.380;2024-03-23T13:54:27;24.20;27.10
80701;DHT22;71609;42.630;23.380;2024-03-23T13:56:54;24.20;27.10
80701;DHT22;71609;42.630;23.380;2024-03-23T13:59:21;24.20;27.20
80701;DHT22;71609;42.630;23.380;2024-03-23T14:01:48;24.20;27.20
80701;DHT22;71609;42.630;23.380;2024-03-23T14:04:14;24.20;27.20
80701;DHT22;71609;42.630;23.380;2024-03-23T14:06:42;24.20;27.20
80701;DHT22;71609;42.630;23.380;2024-03-23T14:09:10;24.10;27.10
80701;DHT22;71609;42.630;23.380;2024-03-23T14:11:36;24.10;27.20
80701;DHT22;71609;42.630;23.380;2024-03-23T14:14:03;24.10;27.10
80701;DHT22;71609;42.630;23.380;2024-03-23T14:16:30;24.10;27.20
80701;DHT22;71609;42.630;23.380;2024-03-23T14:18:57;24.10;27.20
80701;DHT22;71609;42.630;23.380;2024-03-23T14:21:23;24.10;27.20
80701;DHT22;71609;42.630;23.380;2024-03-23T14:23:49;24.10;27.30
80701;DHT22;71609;42.630;23.380;2024-03-23T14:26:15;24.10;27.20
80701;DHT22;71609;42.630;23.380;2024-03-23T14:28:40;24.10;27.30
80701;DHT22;71609;42.630;23.380;2024-03-23T14:31:06;24.00;27.20
80701;DHT22;71609;42.630;23.380;2024-03-23T14:33:39;24.10;27.30
80701;DHT22;71609;42.630;23.380;2024-03-23T14:36:15;24.00;27.20
80701;DHT22;71609;42.630;23.380;2024-03-23T14:38:42;24.00;27.30
80701;DHT22;71609;42.630;23.380;2024-03-23T14:41:07;24.00;27.20
80701;DHT22;71609;42.630;23.380;2024-03-23T14:43:33;24.00;27.20
80701;DHT22;71609;42.630;23.380;2024-03-23T14:46:15;24.00;27.30
80701;DHT22;71609;42.630;23.380;2024-03-23T14:48:44;24.00;27.20
80701;DHT22;71609;42.630;23.380;2024-03-23T14:51:11;23.90;27.20
80701;DHT22;71609;42.630;23.380;2024-03-23T14:53:39;23.90;27.30
80701;DHT22;71609;42.630;23.380;2024-03-23T14:56:08;23.90;27.30
80701;DHT22;71609;42.630;23.380;2024-03-23T14:58:39;23.90;28.20
80701;DHT22;71609;42.630;23.380;2024-03-23T15:01:06;23.90;27.30
80701;DHT22;71609;42.630;23.380;2024-03-23T15:03:38;23.90;27.30
80701;DHT22;71609;42.630;23.380;2024-03-23T15:06:08;23.90;27.20
80701;DHT22;71609;42.630;23.380;2024-03-23T15:08:37;23.90;27.30
80701;DHT22;71609;42.630;23.380;2024-03-23T15:11:03;23.90;27.30
80701;DHT22;71609;42.630;23.380;2024-03-23T15:13:36;23.80;27.20
80701;DHT22;71609;42.630;23.380;2024-03-23T15:16:03;23.80;27.20
80701;DHT22;71609;42.630;23.380;2024-03-23T15:18:29;23.80;27.30
80701;DHT22;71609;42.630;23.380;2024-03-23T15:20:56;23.80;27.30
80701;DHT22;71609;42.630;23.380;2024-03-23T15:23:23;23.80;27.20
80701;DHT22;71609;42.630;23.380;2024-03-23T15:25:56;23.80;27.00
80701;DHT22;71609;42.630;23.380;2024-03-23T15:28:25;23.80;27.20
80701;DHT22;71609;42.630;23.380;2024-03-23T15:31:06;23.80;27.30
80701;DHT22;71609;42.630;23.380;2024-03-23T15:33:32;23.80;27.30
80701;DHT22;71609;42.630;23.380;2024-03-23T15:36:02;23.70;27.30
80701;DHT22;71609;42.630;23.380;2024-03-23T15:38:28;23.70;27.30
80701;DHT22;71609;42.630;23.380;2024-03-23T15:40:57;23.70;27.20
80701;DHT22;71609;42.630;23.380;2024-03-23T15:43:23;23.70;27.20
80701;DHT22;71609;42.630;23.380;2024-03-23T15:45:59;23.70;27.30
80701;DHT22;71609;42.630;23.380;2024-03-23T15:48:26;23.70;27.20
80701;DHT22;71609;42.630;23.380;2024-03-23T15:50:59;23.70;27.30
80701;DHT22;71609;42.630;23.380;2024-03-23T15:53:26;23.70;27.20
80701;DHT22;71609;42.630;23.380;2024-03-23T15:56:02;23.60;27.20
80701;DHT22;71609;42.630;23.380;2024-03-23T15:58:29;23.70;27.30
80701;DHT22;71609;42.630;23.380;2024-03-23T16:01:02;23.60;27.20
80701;DHT22;71609;42.630;23.380;2024-03-23T16:03:29;23.60;27.20
80701;DHT22;71609;42.630;23.380;2024-03-23T16:06:02;23.60;27.30
80701;DHT22;71609;42.630;23.380;2024-03-23T16:08:28;23.60;27.30
80701;DHT22;71609;42.630;23.380;2024-03-23T16:10:58;23.60;27.30
80701;DHT22;71609;42.630;23.380;2024-03-23T16:13:25;23.60;27.30
80701;DHT22;71609;42.630;23.380;2024-03-23T16:16:06;23.50;27.30
80701;DHT22;71609;42.630;23.380;2024-03-23T16:18:36;23.50;27.30
80701;DHT22;71609;42.630;23.380;2024-03-23T16:21:04;23.50;28.30
80701;DHT22;71609;42.630;23.380;2024-03-23T16:23:32;23.50;27.40
80701;DHT22;71609;42.630;23.380;2024-03-23T16:25:58;23.50;27.40